Terminal Aerodrome Forecast
Issued by NWS

Home | Current Version | Previous Version | Graphics & Text | Print | Product List | Glossary On
Versions: 1 2 3 4 5 6 7 8 9 10 11 12 13 14 15 16 17 18 19
000
FTUS42 KMHX 301123
TAFPGV
TAF
KPGV 301123Z 3012/3112 VRB04KT P6SM BKN200
      TEMPO 3012/3013 1SM BR VV005
     FM310200 21003KT P6SM OVC050
     FM310800 VRB03KT P6SM OVC025
      AMD LTD TO CLD VIS AND WIND=

USA.gov is the U.S. government's official web portal to all federal, state and local government web resources and services.